Greater Peoria Regional Airport Peoria US
ICAO: KPIA
IATA: PIA
Category: Large
Scheduled Services: Yes

Elevation: 660 ft
TransAlt. 18000 ft.

Airport Communications:
PEORIA APP/DEP:124.675
ASOS:126.1
ATIS:126.1
GND:121.85
ARNG OPS:32.3
ANG OPS:141.55
KANKAKEE RDO:122.35
PEORIA TWR:119.1
UNICOM:122.95

KPIA Zoom In..

Runways:

(A) RW 04 length 8004 ft width 150 ft
ILS 110.55 / hdg 38

(B) RW 13 length 10104 ft width 150 ft
ILS 109.90 / hdg 126

(C) RW 22 length 8004 ft width 150 ft
---- / hdg 218

(D) RW 31 length 10104 ft width 150 ft
ILS 109.90 / hdg 306

Location; KPIA
Day. 21 / Time. 14.54 Zulu
* Altimeter: 30.06
* Temperature: 16° c. 60.8°f.
* Wind from: 110° Speed 03 kn.
Dewpoint: 15° c.
Visibility: 1 Statute Miles.
Clouds: Few 500 ft.
Clouds: Broken 2900 ft.
Clouds: Overcast 6500 ft.
Conditions: Rain.Conditions: Mist.

KPIA 211454Z 11003KT 1SM R04/5500VP6000FT RA BR FEW005 BKN029 OVC065 16/15 A3006 RMK AO2 SLP178 P0012 60021 T01560150 58002


Wind From 110°
Speed 03 kn.

 
 
jpsmedia.com for Web Design SOUNDCLOUD worldairports.se 2018   terms of use